This is the latest recevied weather packets stored in our database for station/object K7YVO. If no packets are shown the sender has not sent any weather packets the latest 10 day(s).
| Time | Temp. | Humidity | Pressure | Rain* | Wind** | Luminosity | Snow |
|---|---|---|---|---|---|---|---|
| 1777402376 | 10° C | 79% | 1025.7 hPa | 0 mm | - | 196 W/m² | - |
| 1777402075 | 10° C | 79% | 1025.8 hPa | 0 mm | - | 167 W/m² | - |
| 1777401770 | 10.56° C | 78% | 1025.8 hPa | 0 mm | - | 112 W/m² | - |
| 1777401465 | 11.11° C | 75% | 1025.7 hPa | 0 mm | - | 53 W/m² | - |
| 1777401161 | 11.11° C | 75% | 1025.6 hPa | 0 mm | - | 185 W/m² | - |
| 1777400852 | 10.56° C | 75% | 1025.6 hPa | 0 mm | - | 143 W/m² | - |
| 1777400548 | 11.11° C | 75% | 1025.6 hPa | 0 mm | - | 194 W/m² | - |
| 1777400246 | 11.11° C | 73% | 1025.3 hPa | 0 mm | - | 166 W/m² | - |
| 1777399941 | 10.56° C | 75% | 1025.5 hPa | 0 mm | - | 195 W/m² | - |
| 1777399638 | 11.11° C | 74% | 1025.4 hPa | 0 mm | - | 252 W/m² | - |
| 1777399335 | 10.56° C | 75% | 1025.4 hPa | 0 mm | - | 275 W/m² | - |
| 1777399033 | 10.56° C | 75% | 1025.4 hPa | 0 mm | - | 155 W/m² | - |
| 1777398730 | 10.56° C | 75% | 1025.3 hPa | 0 mm | - | 80 W/m² | - |
| 1777398427 | 11.11° C | 75% | 1025.5 hPa | 0 mm | - | 77 W/m² | - |
| 1777398124 | 11.67° C | 73% | 1025.4 hPa | 0 mm | - | 109 W/m² | - |
| 1777397821 | 10.56° C | 76% | 1025.5 hPa | 0 mm | - | 234 W/m² | - |
| 1777397516 | 11.11° C | 75% | 1025.4 hPa | 0 mm | - | 228 W/m² | - |
| 1777397212 | 11.11° C | 75% | 1025.3 hPa | 0 mm | - | 231 W/m² | - |
| 1777396909 | 11.11° C | 76% | 1025.4 hPa | 0 mm | - | 220 W/m² | - |
| 1777396605 | 10.56° C | 76% | 1025.4 hPa | 0 mm | - | 214 W/m² | - |
| 1777396303 | 10.56° C | 76% | 1025.2 hPa | 0 mm | - | 154 W/m² | - |
| 1777395999 | 10° C | 77% | 1025.3 hPa | 0 mm | - | 168 W/m² | - |
| 1777395699 | 10° C | 77% | 1025.3 hPa | 0 mm | - | 105 W/m² | - |
| 1777395395 | 10.56° C | 76% | 1025.3 hPa | 0 mm | - | 152 W/m² | - |
| 1777395093 | 10.56° C | 77% | 1025.2 hPa | 0 mm | - | 148 W/m² | - |
* Rain latest hour (hover to see other rain measurements)
** Current wind speed in m/s (hover to see current wind gust speed)